Cordele, GA

3:32 PM EST on November 26, 2014 (GMT -0500)
Crisp EMA | Change Station
CLOSE
Current Station
Personal Weather Station
Location: Cordele, GA
Elevation: 315 ft
Nearby Weather Stations

Elev 315 ft 31.92 °N, 83.78 °W | Updated 10 minutes ago

Clear
Clear
58.2 °F
Feels Like 58.2 °F
N
6.0
Wind Variable Wind from NW
Gusts 13.0 mph

Today
High -- | Low -- °F
--% Chance of Precip.
Yesterday
High -- | Low -- °F
Precip. -- in
7:13 AM 5:31 PM
Waxing Crescent, 22% visible
Pressure 30.12 in
Visibility 10.0 miles
Clouds Clear
Dew Point 29 °F
Humidity 33%
Rainfall 0.18 in
Snow Depth Not available.
UV 2 out of 12
Pollen .30 out of 12
Air Quality Not available.
Flu Activity Not available.
METAR KCKF 262020Z AUTO 30012G15KT 10SM CLR 16/M05 A3012 RMK AO2 T01611050

More Conditions Fewer Conditions

Pressure 30.12 in
Visibility 10.0 miles
Clouds Clear
Dew Point 29 °F
Humidity 33%
Rainfall 0.18 in
Snow Depth Not available.
UV 2 out of 12
Pollen .30 out of 12
Air Quality Not available.
Flu Activity Not available.
METAR KCKF 262020Z AUTO 30012G15KT 10SM CLR 16/M05 A3012 RMK AO2 T01611050

More Conditions Fewer Conditions

10-Day Weather Forecast

Almanac

Astronomy

Nov. 26, 2014 Rise Set
Actual Time
Civil Twilight
Nautical Twilight
Astronomical Twilight
Moon
Length of Visible Light
Length of Day
Tomorrow will be .
, % of the Moon is Illuminated

Today's Extremes

State Highs State Lows

Community

WunderPhotos

Upload Photos

1,773,853 photos uploaded!

WunderBlogs® & News

Nearby

Air Quality

  Air Quality AQ Index Pollutant
Not available.

Snow Depth

Station Depth Elevation

Earthquake Activity

City Distance Mag. Time & Date
Minimum magnitude displayed is 2.5.

Coastal Water Temperatures

Place Temperature

Nearby Weather Stations